sensor_id;sensor_type;location;lat;lon;timestamp;temperature;humidity
2389;DHT22;1205;47.984;7.668;2023-02-23T00:02:24;10.80;99.90
2389;DHT22;1205;47.984;7.668;2023-02-23T00:04:49;10.80;99.90
2389;DHT22;1205;47.984;7.668;2023-02-23T00:07:15;10.80;99.90
2389;DHT22;1205;47.984;7.668;2023-02-23T00:09:44;10.70;99.90
2389;DHT22;1205;47.984;7.668;2023-02-23T00:12:11;10.70;99.90
2389;DHT22;1205;47.984;7.668;2023-02-23T00:14:37;10.70;99.90
2389;DHT22;1205;47.984;7.668;2023-02-23T00:17:03;10.70;99.90
2389;DHT22;1205;47.984;7.668;2023-02-23T00:19:29;10.70;99.90
2389;DHT22;1205;47.984;7.668;2023-02-23T00:21:57;10.70;99.90
2389;DHT22;1205;47.984;7.668;2023-02-23T00:24:23;10.70;99.90
2389;DHT22;1205;47.984;7.668;2023-02-23T00:26:51;10.70;99.90
2389;DHT22;1205;47.984;7.668;2023-02-23T00:29:19;10.70;99.90
2389;DHT22;1205;47.984;7.668;2023-02-23T00:31:45;10.70;99.90
2389;DHT22;1205;47.984;7.668;2023-02-23T00:34:13;10.70;99.90
2389;DHT22;1205;47.984;7.668;2023-02-23T00:36:41;10.60;99.90
2389;DHT22;1205;47.984;7.668;2023-02-23T00:39:10;10.60;99.90
2389;DHT22;1205;47.984;7.668;2023-02-23T00:41:46;10.60;99.90
2389;DHT22;1205;47.984;7.668;2023-02-23T00:44:12;10.60;99.90
2389;DHT22;1205;47.984;7.668;2023-02-23T00:46:42;10.60;99.90
2389;DHT22;1205;47.984;7.668;2023-02-23T00:49:10;10.60;99.90
2389;DHT22;1205;47.984;7.668;2023-02-23T00:51:36;10.60;99.90
2389;DHT22;1205;47.984;7.668;2023-02-23T00:54:02;10.60;99.90
2389;DHT22;1205;47.984;7.668;2023-02-23T00:56:28;10.60;99.90
2389;DHT22;1205;47.984;7.668;2023-02-23T00:58:54;10.60;99.90
2389;DHT22;1205;47.984;7.668;2023-02-23T01:01:24;10.50;99.90
2389;DHT22;1205;47.984;7.668;2023-02-23T01:03:50;10.60;99.90
2389;DHT22;1205;47.984;7.668;2023-02-23T01:06:18;10.50;99.90
2389;DHT22;1205;47.984;7.668;2023-02-23T01:08:46;10.50;99.90
2389;DHT22;1205;47.984;7.668;2023-02-23T01:11:21;10.50;99.90
2389;DHT22;1205;47.984;7.668;2023-02-23T01:13:50;10.50;99.90
2389;DHT22;1205;47.984;7.668;2023-02-23T01:16:18;10.50;99.90
2389;DHT22;1205;47.984;7.668;2023-02-23T01:18:45;10.50;99.90
2389;DHT22;1205;47.984;7.668;2023-02-23T01:21:20;10.50;99.90
2389;DHT22;1205;47.984;7.668;2023-02-23T01:23:46;10.40;99.90
2389;DHT22;1205;47.984;7.668;2023-02-23T01:26:20;10.40;99.90
2389;DHT22;1205;47.984;7.668;2023-02-23T01:28:53;10.40;99.90
2389;DHT22;1205;47.984;7.668;2023-02-23T01:31:22;10.40;99.90
2389;DHT22;1205;47.984;7.668;2023-02-23T01:33:51;10.40;99.90
2389;DHT22;1205;47.984;7.668;2023-02-23T01:36:17;10.40;99.90
2389;DHT22;1205;47.984;7.668;2023-02-23T01:38:43;10.40;99.90
2389;DHT22;1205;47.984;7.668;2023-02-23T01:41:08;10.40;99.90
2389;DHT22;1205;47.984;7.668;2023-02-23T01:43:34;10.40;99.90
2389;DHT22;1205;47.984;7.668;2023-02-23T01:46:01;10.40;99.90
2389;DHT22;1205;47.984;7.668;2023-02-23T01:48:31;10.40;99.90
2389;DHT22;1205;47.984;7.668;2023-02-23T01:51:13;10.30;99.90
2389;DHT22;1205;47.984;7.668;2023-02-23T01:53:56;10.30;99.90
2389;DHT22;1205;47.984;7.668;2023-02-23T01:56:26;10.30;99.90
2389;DHT22;1205;47.984;7.668;2023-02-23T01:58:56;10.30;99.90
2389;DHT22;1205;47.984;7.668;2023-02-23T02:01:22;10.30;99.90
2389;DHT22;1205;47.984;7.668;2023-02-23T02:03:55;10.30;99.90
2389;DHT22;1205;47.984;7.668;2023-02-23T02:06:24;10.40;99.90
2389;DHT22;1205;47.984;7.668;2023-02-23T02:08:54;10.40;99.90
2389;DHT22;1205;47.984;7.668;2023-02-23T02:11:21;10.40;99.90
2389;DHT22;1205;47.984;7.668;2023-02-23T02:14:14;10.40;99.90
2389;DHT22;1205;47.984;7.668;2023-02-23T02:17:06;10.40;99.90
2389;DHT22;1205;47.984;7.668;2023-02-23T02:20:07;10.50;99.90
2389;DHT22;1205;47.984;7.668;2023-02-23T02:25:30;10.50;99.90
2389;DHT22;1205;47.984;7.668;2023-02-23T02:34:19;10.50;99.90
2389;DHT22;1205;47.984;7.668;2023-02-23T02:37:02;10.50;99.90
2389;DHT22;1205;47.984;7.668;2023-02-23T02:42:35;10.50;99.90
2389;DHT22;1205;47.984;7.668;2023-02-23T02:45:27;10.50;99.90
2389;DHT22;1205;47.984;7.668;2023-02-23T02:48:14;10.50;99.90
2389;DHT22;1205;47.984;7.668;2023-02-23T02:53:29;10.50;99.90
2389;DHT22;1205;47.984;7.668;2023-02-23T02:55:56;10.60;99.90
2389;DHT22;1205;47.984;7.668;2023-02-23T02:58:24;10.60;99.90
2389;DHT22;1205;47.984;7.668;2023-02-23T03:00:52;10.60;99.90
2389;DHT22;1205;47.984;7.668;2023-02-23T03:03:44;10.60;99.90
2389;DHT22;1205;47.984;7.668;2023-02-23T03:07:15;10.70;99.90
2389;DHT22;1205;47.984;7.668;2023-02-23T03:09:52;10.60;99.90
2389;DHT22;1205;47.984;7.668;2023-02-23T03:12:44;10.60;99.90
2389;DHT22;1205;47.984;7.668;2023-02-23T03:24:48;10.60;99.90
2389;DHT22;1205;47.984;7.668;2023-02-23T03:27:43;10.50;99.90
2389;DHT22;1205;47.984;7.668;2023-02-23T03:30:45;10.50;99.90
2389;DHT22;1205;47.984;7.668;2023-02-23T03:36:26;10.50;99.90
2389;DHT22;1205;47.984;7.668;2023-02-23T03:42:20;10.50;99.90
2389;DHT22;1205;47.984;7.668;2023-02-23T03:45:10;10.60;99.90
2389;DHT22;1205;47.984;7.668;2023-02-23T03:47:58;10.60;99.90
2389;DHT22;1205;47.984;7.668;2023-02-23T03:50:50;10.60;99.90
2389;DHT22;1205;47.984;7.668;2023-02-23T03:53:45;10.50;99.90
2389;DHT22;1205;47.984;7.668;2023-02-23T03:56:32;10.40;99.90
2389;DHT22;1205;47.984;7.668;2023-02-23T03:59:21;10.30;99.90
2389;DHT22;1205;47.984;7.668;2023-02-23T04:02:07;10.20;99.90
2389;DHT22;1205;47.984;7.668;2023-02-23T04:04:56;10.10;99.90
2389;DHT22;1205;47.984;7.668;2023-02-23T04:07:43;10.10;99.90
2389;DHT22;1205;47.984;7.668;2023-02-23T04:10:29;10.10;99.90
2389;DHT22;1205;47.984;7.668;2023-02-23T04:13:17;10.10;99.90
2389;DHT22;1205;47.984;7.668;2023-02-23T04:18:30;10.00;99.90
2389;DHT22;1205;47.984;7.668;2023-02-23T04:20:57;10.10;99.90
2389;DHT22;1205;47.984;7.668;2023-02-23T04:23:23;10.10;99.90
2389;DHT22;1205;47.984;7.668;2023-02-23T04:25:50;10.10;99.90
2389;DHT22;1205;47.984;7.668;2023-02-23T04:28:16;10.10;99.90
2389;DHT22;1205;47.984;7.668;2023-02-23T04:30:42;10.10;99.90
2389;DHT22;1205;47.984;7.668;2023-02-23T04:33:08;10.10;99.90
2389;DHT22;1205;47.984;7.668;2023-02-23T04:35:34;10.10;99.90
2389;DHT22;1205;47.984;7.668;2023-02-23T04:38:00;10.10;99.90
2389;DHT22;1205;47.984;7.668;2023-02-23T04:40:26;10.10;99.90
2389;DHT22;1205;47.984;7.668;2023-02-23T04:42:52;10.10;99.90
2389;DHT22;1205;47.984;7.668;2023-02-23T04:45:18;10.10;99.90
2389;DHT22;1205;47.984;7.668;2023-02-23T04:47:44;10.20;99.90
2389;DHT22;1205;47.984;7.668;2023-02-23T04:50:11;10.10;99.90
2389;DHT22;1205;47.984;7.668;2023-02-23T04:52:37;10.10;99.90
2389;DHT22;1205;47.984;7.668;2023-02-23T04:55:04;10.10;99.90
2389;DHT22;1205;47.984;7.668;2023-02-23T04:57:31;10.10;99.90
2389;DHT22;1205;47.984;7.668;2023-02-23T04:59:57;10.10;99.90
2389;DHT22;1205;47.984;7.668;2023-02-23T05:02:22;10.00;99.90
2389;DHT22;1205;47.984;7.668;2023-02-23T05:04:49;10.00;99.90
2389;DHT22;1205;47.984;7.668;2023-02-23T05:07:15;10.00;99.90
2389;DHT22;1205;47.984;7.668;2023-02-23T05:09:41;10.00;99.90
2389;DHT22;1205;47.984;7.668;2023-02-23T05:12:06;10.00;99.90
2389;DHT22;1205;47.984;7.668;2023-02-23T05:14:32;10.00;99.90
2389;DHT22;1205;47.984;7.668;2023-02-23T05:16:57;10.00;99.90
2389;DHT22;1205;47.984;7.668;2023-02-23T05:19:23;10.00;99.90
2389;DHT22;1205;47.984;7.668;2023-02-23T05:21:49;10.10;99.90
2389;DHT22;1205;47.984;7.668;2023-02-23T05:24:15;10.00;99.90
2389;DHT22;1205;47.984;7.668;2023-02-23T05:26:41;9.90;99.90
2389;DHT22;1205;47.984;7.668;2023-02-23T05:29:07;9.80;99.90
2389;DHT22;1205;47.984;7.668;2023-02-23T05:31:32;9.70;99.90
2389;DHT22;1205;47.984;7.668;2023-02-23T05:33:58;9.70;99.90
2389;DHT22;1205;47.984;7.668;2023-02-23T05:36:24;9.80;99.90
2389;DHT22;1205;47.984;7.668;2023-02-23T05:38:49;9.80;99.90
2389;DHT22;1205;47.984;7.668;2023-02-23T05:41:18;9.80;99.90
2389;DHT22;1205;47.984;7.668;2023-02-23T05:43:44;9.80;99.90
2389;DHT22;1205;47.984;7.668;2023-02-23T05:46:13;9.90;99.90
2389;DHT22;1205;47.984;7.668;2023-02-23T05:48:40;10.00;99.90
2389;DHT22;1205;47.984;7.668;2023-02-23T05:51:08;10.00;99.90
2389;DHT22;1205;47.984;7.668;2023-02-23T05:53:35;10.00;99.90
2389;DHT22;1205;47.984;7.668;2023-02-23T05:56:01;10.00;99.90
2389;DHT22;1205;47.984;7.668;2023-02-23T05:58:27;10.00;99.90
2389;DHT22;1205;47.984;7.668;2023-02-23T06:00:53;10.00;99.90
2389;DHT22;1205;47.984;7.668;2023-02-23T06:03:19;10.00;99.90
2389;DHT22;1205;47.984;7.668;2023-02-23T06:05:53;9.90;99.90
2389;DHT22;1205;47.984;7.668;2023-02-23T06:08:19;10.00;99.90
2389;DHT22;1205;47.984;7.668;2023-02-23T06:10:46;10.00;99.90
2389;DHT22;1205;47.984;7.668;2023-02-23T06:13:12;9.90;99.90
2389;DHT22;1205;47.984;7.668;2023-02-23T06:15:38;9.90;99.90
2389;DHT22;1205;47.984;7.668;2023-02-23T06:18:05;10.00;99.90
2389;DHT22;1205;47.984;7.668;2023-02-23T06:20:30;9.90;99.90
2389;DHT22;1205;47.984;7.668;2023-02-23T06:22:56;10.00;99.90
2389;DHT22;1205;47.984;7.668;2023-02-23T06:25:22;9.90;99.90
2389;DHT22;1205;47.984;7.668;2023-02-23T06:27:48;9.90;99.90
2389;DHT22;1205;47.984;7.668;2023-02-23T06:30:14;9.90;99.90
2389;DHT22;1205;47.984;7.668;2023-02-23T06:32:39;9.90;99.90
2389;DHT22;1205;47.984;7.668;2023-02-23T06:35:06;9.90;99.90
2389;DHT22;1205;47.984;7.668;2023-02-23T06:37:32;9.90;99.90
2389;DHT22;1205;47.984;7.668;2023-02-23T06:39:58;9.90;99.90
2389;DHT22;1205;47.984;7.668;2023-02-23T06:42:24;9.90;99.90
2389;DHT22;1205;47.984;7.668;2023-02-23T06:44:50;9.90;99.90
2389;DHT22;1205;47.984;7.668;2023-02-23T06:47:16;9.90;99.90
2389;DHT22;1205;47.984;7.668;2023-02-23T06:49:41;9.90;99.90
2389;DHT22;1205;47.984;7.668;2023-02-23T06:52:08;10.00;99.90
2389;DHT22;1205;47.984;7.668;2023-02-23T06:54:34;10.10;99.90
2389;DHT22;1205;47.984;7.668;2023-02-23T06:57:00;10.00;99.90
2389;DHT22;1205;47.984;7.668;2023-02-23T06:59:25;10.00;99.90
2389;DHT22;1205;47.984;7.668;2023-02-23T07:01:51;10.10;99.90
2389;DHT22;1205;47.984;7.668;2023-02-23T07:04:17;10.20;99.90
2389;DHT22;1205;47.984;7.668;2023-02-23T07:06:42;10.20;99.90
2389;DHT22;1205;47.984;7.668;2023-02-23T07:09:08;10.30;99.90
2389;DHT22;1205;47.984;7.668;2023-02-23T07:11:34;10.30;99.90
2389;DHT22;1205;47.984;7.668;2023-02-23T07:14:00;10.30;99.90
2389;DHT22;1205;47.984;7.668;2023-02-23T07:16:27;10.30;99.90
2389;DHT22;1205;47.984;7.668;2023-02-23T07:18:53;10.40;99.90
2389;DHT22;1205;47.984;7.668;2023-02-23T07:21:19;10.40;99.90
2389;DHT22;1205;47.984;7.668;2023-02-23T07:23:45;10.50;99.90
2389;DHT22;1205;47.984;7.668;2023-02-23T07:26:15;10.40;99.90
2389;DHT22;1205;47.984;7.668;2023-02-23T07:28:42;10.40;99.90
2389;DHT22;1205;47.984;7.668;2023-02-23T07:31:07;10.50;99.90
2389;DHT22;1205;47.984;7.668;2023-02-23T07:33:33;10.50;99.90
2389;DHT22;1205;47.984;7.668;2023-02-23T07:35:59;10.60;99.90
2389;DHT22;1205;47.984;7.668;2023-02-23T07:38:24;10.60;99.90
2389;DHT22;1205;47.984;7.668;2023-02-23T07:40:50;10.50;99.90
2389;DHT22;1205;47.984;7.668;2023-02-23T07:43:16;10.50;99.90
2389;DHT22;1205;47.984;7.668;2023-02-23T07:45:42;10.50;99.90
2389;DHT22;1205;47.984;7.668;2023-02-23T07:48:08;10.50;99.90
2389;DHT22;1205;47.984;7.668;2023-02-23T07:50:34;10.60;99.90
2389;DHT22;1205;47.984;7.668;2023-02-23T07:53:00;10.60;99.90
2389;DHT22;1205;47.984;7.668;2023-02-23T07:55:26;10.60;99.90
2389;DHT22;1205;47.984;7.668;2023-02-23T07:57:52;10.70;99.90
2389;DHT22;1205;47.984;7.668;2023-02-23T08:00:18;10.70;99.90
2389;DHT22;1205;47.984;7.668;2023-02-23T08:02:44;10.80;99.90
2389;DHT22;1205;47.984;7.668;2023-02-23T08:05:09;10.80;99.90
2389;DHT22;1205;47.984;7.668;2023-02-23T08:07:35;10.80;99.90
2389;DHT22;1205;47.984;7.668;2023-02-23T08:10:01;11.00;99.90
2389;DHT22;1205;47.984;7.668;2023-02-23T08:12:26;11.00;99.90
2389;DHT22;1205;47.984;7.668;2023-02-23T08:14:52;11.10;99.90
2389;DHT22;1205;47.984;7.668;2023-02-23T08:17:18;11.20;99.90
2389;DHT22;1205;47.984;7.668;2023-02-23T08:19:44;11.20;99.90
2389;DHT22;1205;47.984;7.668;2023-02-23T08:22:09;11.30;99.90
2389;DHT22;1205;47.984;7.668;2023-02-23T08:24:35;11.30;99.90
2389;DHT22;1205;47.984;7.668;2023-02-23T08:27:02;11.40;99.90
2389;DHT22;1205;47.984;7.668;2023-02-23T08:29:27;11.40;99.90
2389;DHT22;1205;47.984;7.668;2023-02-23T08:31:53;11.60;99.90
2389;DHT22;1205;47.984;7.668;2023-02-23T08:34:20;11.90;99.90
2389;DHT22;1205;47.984;7.668;2023-02-23T08:36:47;12.10;99.90
2389;DHT22;1205;47.984;7.668;2023-02-23T08:39:13;12.10;99.90
2389;DHT22;1205;47.984;7.668;2023-02-23T08:41:39;12.10;99.90
2389;DHT22;1205;47.984;7.668;2023-02-23T08:44:05;12.20;99.90
2389;DHT22;1205;47.984;7.668;2023-02-23T08:46:31;12.20;99.90
2389;DHT22;1205;47.984;7.668;2023-02-23T08:48:57;12.30;99.90
2389;DHT22;1205;47.984;7.668;2023-02-23T08:51:23;12.20;99.90
2389;DHT22;1205;47.984;7.668;2023-02-23T08:53:48;12.20;99.90
2389;DHT22;1205;47.984;7.668;2023-02-23T08:56:14;12.30;99.90
2389;DHT22;1205;47.984;7.668;2023-02-23T08:58:40;12.50;99.90
2389;DHT22;1205;47.984;7.668;2023-02-23T09:01:06;12.50;99.90
2389;DHT22;1205;47.984;7.668;2023-02-23T09:03:33;12.50;99.90
2389;DHT22;1205;47.984;7.668;2023-02-23T09:06:14;12.50;99.90
2389;DHT22;1205;47.984;7.668;2023-02-23T09:08:40;12.30;99.90
2389;DHT22;1205;47.984;7.668;2023-02-23T09:11:06;12.30;99.90
2389;DHT22;1205;47.984;7.668;2023-02-23T09:13:32;12.50;99.90
2389;DHT22;1205;47.984;7.668;2023-02-23T09:15:57;12.50;99.90
2389;DHT22;1205;47.984;7.668;2023-02-23T09:18:23;12.70;99.90
2389;DHT22;1205;47.984;7.668;2023-02-23T09:20:52;12.90;99.90
2389;DHT22;1205;47.984;7.668;2023-02-23T09:23:18;12.80;99.90
2389;DHT22;1205;47.984;7.668;2023-02-23T09:25:44;12.90;99.90
2389;DHT22;1205;47.984;7.668;2023-02-23T09:28:11;13.60;99.90
2389;DHT22;1205;47.984;7.668;2023-02-23T09:30:39;14.00;99.90
2389;DHT22;1205;47.984;7.668;2023-02-23T09:33:06;14.30;99.90
2389;DHT22;1205;47.984;7.668;2023-02-23T09:35:33;14.50;99.90
2389;DHT22;1205;47.984;7.668;2023-02-23T09:38:00;14.80;99.90
2389;DHT22;1205;47.984;7.668;2023-02-23T09:40:35;14.10;99.90
2389;DHT22;1205;47.984;7.668;2023-02-23T09:46:46;13.90;99.90
2389;DHT22;1205;47.984;7.668;2023-02-23T09:48:55;13.50;99.90
2389;DHT22;1205;47.984;7.668;2023-02-23T09:51:22;13.20;99.90
2389;DHT22;1205;47.984;7.668;2023-02-23T09:53:56;13.40;99.90
2389;DHT22;1205;47.984;7.668;2023-02-23T09:56:37;13.40;99.90
2389;DHT22;1205;47.984;7.668;2023-02-23T09:59:09;13.40;99.90
2389;DHT22;1205;47.984;7.668;2023-02-23T10:12:02;13.60;99.90
2389;DHT22;1205;47.984;7.668;2023-02-23T10:23:37;13.90;99.90
2389;DHT22;1205;47.984;7.668;2023-02-23T10:26:04;13.90;99.90
2389;DHT22;1205;47.984;7.668;2023-02-23T10:28:34;13.80;99.90
2389;DHT22;1205;47.984;7.668;2023-02-23T10:31:03;13.70;99.90
2389;DHT22;1205;47.984;7.668;2023-02-23T10:33:38;13.90;99.90
2389;DHT22;1205;47.984;7.668;2023-02-23T10:36:16;13.90;99.90
2389;DHT22;1205;47.984;7.668;2023-02-23T10:38:41;13.70;99.90
2389;DHT22;1205;47.984;7.668;2023-02-23T10:41:09;13.60;99.90
2389;DHT22;1205;47.984;7.668;2023-02-23T10:43:35;13.80;99.90
2389;DHT22;1205;47.984;7.668;2023-02-23T10:46:01;13.90;99.90
2389;DHT22;1205;47.984;7.668;2023-02-23T10:48:35;14.00;99.90
2389;DHT22;1205;47.984;7.668;2023-02-23T10:51:04;13.90;99.90
2389;DHT22;1205;47.984;7.668;2023-02-23T10:53:36;14.10;99.90
2389;DHT22;1205;47.984;7.668;2023-02-23T10:56:09;14.20;99.90
2389;DHT22;1205;47.984;7.668;2023-02-23T11:01:11;14.00;99.90
2389;DHT22;1205;47.984;7.668;2023-02-23T11:03:45;14.00;99.90
2389;DHT22;1205;47.984;7.668;2023-02-23T11:06:36;14.00;99.90
2389;DHT22;1205;47.984;7.668;2023-02-23T11:09:34;14.10;99.90
2389;DHT22;1205;47.984;7.668;2023-02-23T11:12:02;14.00;99.90
2389;DHT22;1205;47.984;7.668;2023-02-23T11:14:30;13.90;99.90
2389;DHT22;1205;47.984;7.668;2023-02-23T11:16:57;13.90;99.90
2389;DHT22;1205;47.984;7.668;2023-02-23T11:19:41;13.80;99.90
2389;DHT22;1205;47.984;7.668;2023-02-23T11:22:06;13.80;99.90
2389;DHT22;1205;47.984;7.668;2023-02-23T11:24:46;13.90;99.90
2389;DHT22;1205;47.984;7.668;2023-02-23T11:27:21;13.90;99.90
2389;DHT22;1205;47.984;7.668;2023-02-23T11:29:49;13.80;99.90
2389;DHT22;1205;47.984;7.668;2023-02-23T11:32:18;13.80;99.90
2389;DHT22;1205;47.984;7.668;2023-02-23T11:34:45;13.90;99.90
2389;DHT22;1205;47.984;7.668;2023-02-23T11:39:59;14.00;99.90
2389;DHT22;1205;47.984;7.668;2023-02-23T11:42:30;14.10;99.90
2389;DHT22;1205;47.984;7.668;2023-02-23T11:47:32;14.20;99.90
2389;DHT22;1205;47.984;7.668;2023-02-23T11:50:00;14.10;99.90
2389;DHT22;1205;47.984;7.668;2023-02-23T11:52:28;14.10;99.90
2389;DHT22;1205;47.984;7.668;2023-02-23T11:55:03;14.20;99.90
2389;DHT22;1205;47.984;7.668;2023-02-23T11:57:32;14.20;99.90
2389;DHT22;1205;47.984;7.668;2023-02-23T12:00:01;14.20;99.90
2389;DHT22;1205;47.984;7.668;2023-02-23T12:02:29;14.20;99.90
2389;DHT22;1205;47.984;7.668;2023-02-23T12:10:33;14.60;99.90
2389;DHT22;1205;47.984;7.668;2023-02-23T12:13:03;14.90;99.90
2389;DHT22;1205;47.984;7.668;2023-02-23T12:15:42;15.10;99.90
2389;DHT22;1205;47.984;7.668;2023-02-23T12:20:43;15.30;99.90
2389;DHT22;1205;47.984;7.668;2023-02-23T12:23:17;15.40;99.90
2389;DHT22;1205;47.984;7.668;2023-02-23T12:26:08;15.30;99.90
2389;DHT22;1205;47.984;7.668;2023-02-23T12:28:44;15.20;99.90
2389;DHT22;1205;47.984;7.668;2023-02-23T12:31:26;15.20;99.90
2389;DHT22;1205;47.984;7.668;2023-02-23T12:34:08;15.10;99.90
2389;DHT22;1205;47.984;7.668;2023-02-23T12:36:49;15.20;99.90
2389;DHT22;1205;47.984;7.668;2023-02-23T12:39:39;15.40;99.90
2389;DHT22;1205;47.984;7.668;2023-02-23T12:44:55;15.80;99.90
2389;DHT22;1205;47.984;7.668;2023-02-23T12:47:43;15.70;99.90
2389;DHT22;1205;47.984;7.668;2023-02-23T12:52:53;15.30;99.90
2389;DHT22;1205;47.984;7.668;2023-02-23T12:55:32;15.40;99.90
2389;DHT22;1205;47.984;7.668;2023-02-23T13:01:52;15.80;99.90
2389;DHT22;1205;47.984;7.668;2023-02-23T13:04:25;15.80;99.90
2389;DHT22;1205;47.984;7.668;2023-02-23T13:06:57;15.70;99.90
2389;DHT22;1205;47.984;7.668;2023-02-23T13:12:38;15.70;99.90
2389;DHT22;1205;47.984;7.668;2023-02-23T13:17:59;15.70;99.90
2389;DHT22;1205;47.984;7.668;2023-02-23T13:20:36;15.70;99.90
2389;DHT22;1205;47.984;7.668;2023-02-23T13:23:25;15.60;99.90
2389;DHT22;1205;47.984;7.668;2023-02-23T13:31:24;15.80;99.90
2389;DHT22;1205;47.984;7.668;2023-02-23T13:33:53;15.80;99.90
2389;DHT22;1205;47.984;7.668;2023-02-23T13:36:19;15.90;99.90
2389;DHT22;1205;47.984;7.668;2023-02-23T13:52:43;15.80;99.90
2389;DHT22;1205;47.984;7.668;2023-02-23T13:57:51;15.80;99.90
2389;DHT22;1205;47.984;7.668;2023-02-23T14:00:21;16.00;99.90
2389;DHT22;1205;47.984;7.668;2023-02-23T14:02:47;15.90;99.90
2389;DHT22;1205;47.984;7.668;2023-02-23T14:05:24;15.90;99.90
2389;DHT22;1205;47.984;7.668;2023-02-23T14:07:53;15.90;99.90
2389;DHT22;1205;47.984;7.668;2023-02-23T14:10:26;16.10;99.90
2389;DHT22;1205;47.984;7.668;2023-02-23T14:15:47;15.90;99.00
2389;DHT22;1205;47.984;7.668;2023-02-23T14:20:50;15.90;99.00
2389;DHT22;1205;47.984;7.668;2023-02-23T14:25:48;16.00;99.90
2389;DHT22;1205;47.984;7.668;2023-02-23T14:28:32;15.90;99.20
2389;DHT22;1205;47.984;7.668;2023-02-23T14:41:25;15.60;99.30
2389;DHT22;1205;47.984;7.668;2023-02-23T14:44:23;15.70;99.20
2389;DHT22;1205;47.984;7.668;2023-02-23T14:46:53;15.70;99.40
2389;DHT22;1205;47.984;7.668;2023-02-23T14:49:20;15.40;99.90
2389;DHT22;1205;47.984;7.668;2023-02-23T14:51:50;15.20;99.90
2389;DHT22;1205;47.984;7.668;2023-02-23T14:54:23;15.10;99.90
2389;DHT22;1205;47.984;7.668;2023-02-23T14:56:52;14.90;99.90
2389;DHT22;1205;47.984;7.668;2023-02-23T14:59:20;14.90;99.90
2389;DHT22;1205;47.984;7.668;2023-02-23T15:01:46;14.80;99.90
2389;DHT22;1205;47.984;7.668;2023-02-23T15:04:15;14.80;99.90
2389;DHT22;1205;47.984;7.668;2023-02-23T15:06:41;14.70;99.90
2389;DHT22;1205;47.984;7.668;2023-02-23T15:09:20;14.70;99.90
2389;DHT22;1205;47.984;7.668;2023-02-23T15:11:48;14.80;99.90
2389;DHT22;1205;47.984;7.668;2023-02-23T15:14:16;14.80;99.90
2389;DHT22;1205;47.984;7.668;2023-02-23T15:16:42;14.80;99.90
2389;DHT22;1205;47.984;7.668;2023-02-23T15:19:15;14.80;99.90
2389;DHT22;1205;47.984;7.668;2023-02-23T15:21:42;14.90;99.90
2389;DHT22;1205;47.984;7.668;2023-02-23T15:24:14;14.80;99.90
2389;DHT22;1205;47.984;7.668;2023-02-23T15:26:46;14.70;99.90
2389;DHT22;1205;47.984;7.668;2023-02-23T15:29:24;14.70;99.90
2389;DHT22;1205;47.984;7.668;2023-02-23T15:31:52;14.70;99.90
2389;DHT22;1205;47.984;7.668;2023-02-23T15:34:24;14.80;99.90
2389;DHT22;1205;47.984;7.668;2023-02-23T15:37:00;14.80;99.90
2389;DHT22;1205;47.984;7.668;2023-02-23T15:39:42;14.80;99.90
2389;DHT22;1205;47.984;7.668;2023-02-23T15:42:13;14.80;99.90
2389;DHT22;1205;47.984;7.668;2023-02-23T15:44:39;14.70;99.90
2389;DHT22;1205;47.984;7.668;2023-02-23T15:47:15;14.80;99.90
2389;DHT22;1205;47.984;7.668;2023-02-23T15:49:44;14.70;99.90
2389;DHT22;1205;47.984;7.668;2023-02-23T15:52:19;14.50;99.90
2389;DHT22;1205;47.984;7.668;2023-02-23T15:57:20;14.50;99.90
2389;DHT22;1205;47.984;7.668;2023-02-23T15:59:48;14.30;99.90
2389;DHT22;1205;47.984;7.668;2023-02-23T16:02:17;14.20;99.90
2389;DHT22;1205;47.984;7.668;2023-02-23T16:04:45;14.20;99.90
2389;DHT22;1205;47.984;7.668;2023-02-23T16:07:20;14.10;99.90
2389;DHT22;1205;47.984;7.668;2023-02-23T16:10:01;14.20;99.90
2389;DHT22;1205;47.984;7.668;2023-02-23T16:12:33;14.10;99.90
2389;DHT22;1205;47.984;7.668;2023-02-23T16:15:02;14.00;99.90
2389;DHT22;1205;47.984;7.668;2023-02-23T16:22:54;13.80;99.90
2389;DHT22;1205;47.984;7.668;2023-02-23T16:25:24;13.80;99.90
2389;DHT22;1205;47.984;7.668;2023-02-23T16:28:11;13.70;99.90
2389;DHT22;1205;47.984;7.668;2023-02-23T16:30:43;13.70;99.90
2389;DHT22;1205;47.984;7.668;2023-02-23T16:33:14;13.50;99.90
2389;DHT22;1205;47.984;7.668;2023-02-23T16:35:49;13.40;99.90
2389;DHT22;1205;47.984;7.668;2023-02-23T16:38:26;13.30;99.90
2389;DHT22;1205;47.984;7.668;2023-02-23T16:40:52;13.30;99.90
2389;DHT22;1205;47.984;7.668;2023-02-23T16:43:18;13.30;99.90
2389;DHT22;1205;47.984;7.668;2023-02-23T16:45:44;13.20;99.90
2389;DHT22;1205;47.984;7.668;2023-02-23T16:48:14;13.10;99.90
2389;DHT22;1205;47.984;7.668;2023-02-23T16:50:40;13.00;99.90
2389;DHT22;1205;47.984;7.668;2023-02-23T16:53:06;12.90;99.90
2389;DHT22;1205;47.984;7.668;2023-02-23T16:55:55;12.90;99.90
2389;DHT22;1205;47.984;7.668;2023-02-23T16:58:23;12.90;99.90
2389;DHT22;1205;47.984;7.668;2023-02-23T17:00:50;12.80;99.90
2389;DHT22;1205;47.984;7.668;2023-02-23T17:03:19;12.80;99.90
2389;DHT22;1205;47.984;7.668;2023-02-23T17:05:46;12.70;99.90
2389;DHT22;1205;47.984;7.668;2023-02-23T17:08:12;12.70;99.90
2389;DHT22;1205;47.984;7.668;2023-02-23T17:10:38;12.60;99.90
2389;DHT22;1205;47.984;7.668;2023-02-23T17:13:07;12.50;99.90
2389;DHT22;1205;47.984;7.668;2023-02-23T17:15:39;12.60;99.90
2389;DHT22;1205;47.984;7.668;2023-02-23T17:18:05;12.50;99.90
2389;DHT22;1205;47.984;7.668;2023-02-23T17:20:31;12.40;99.90
2389;DHT22;1205;47.984;7.668;2023-02-23T17:22:59;12.40;99.90
2389;DHT22;1205;47.984;7.668;2023-02-23T17:25:25;12.40;99.90
2389;DHT22;1205;47.984;7.668;2023-02-23T17:27:55;12.30;99.90
2389;DHT22;1205;47.984;7.668;2023-02-23T17:30:22;12.30;99.90
2389;DHT22;1205;47.984;7.668;2023-02-23T17:32:49;12.20;99.90
2389;DHT22;1205;47.984;7.668;2023-02-23T17:35:16;12.20;99.90
2389;DHT22;1205;47.984;7.668;2023-02-23T17:37:41;12.10;99.90
2389;DHT22;1205;47.984;7.668;2023-02-23T17:40:11;12.10;99.90
2389;DHT22;1205;47.984;7.668;2023-02-23T17:42:37;12.00;99.90
2389;DHT22;1205;47.984;7.668;2023-02-23T17:45:04;11.90;99.90
2389;DHT22;1205;47.984;7.668;2023-02-23T17:47:31;11.90;99.90
2389;DHT22;1205;47.984;7.668;2023-02-23T17:49:58;11.80;99.90
2389;DHT22;1205;47.984;7.668;2023-02-23T17:52:25;11.80;99.90
2389;DHT22;1205;47.984;7.668;2023-02-23T17:54:51;11.80;99.90
2389;DHT22;1205;47.984;7.668;2023-02-23T17:57:19;11.70;99.90
2389;DHT22;1205;47.984;7.668;2023-02-23T17:59:45;11.70;99.90
2389;DHT22;1205;47.984;7.668;2023-02-23T18:02:16;11.70;99.90
2389;DHT22;1205;47.984;7.668;2023-02-23T18:04:43;11.70;99.90
2389;DHT22;1205;47.984;7.668;2023-02-23T18:07:08;11.70;99.90
2389;DHT22;1205;47.984;7.668;2023-02-23T18:09:34;11.70;99.90
2389;DHT22;1205;47.984;7.668;2023-02-23T18:11:59;11.80;99.90
2389;DHT22;1205;47.984;7.668;2023-02-23T18:14:25;11.70;99.90
2389;DHT22;1205;47.984;7.668;2023-02-23T18:16:51;11.80;99.90
2389;DHT22;1205;47.984;7.668;2023-02-23T18:19:18;11.70;99.90
2389;DHT22;1205;47.984;7.668;2023-02-23T18:21:43;11.60;99.90
2389;DHT22;1205;47.984;7.668;2023-02-23T18:24:10;11.70;99.90
2389;DHT22;1205;47.984;7.668;2023-02-23T18:26:36;11.70;99.90
2389;DHT22;1205;47.984;7.668;2023-02-23T18:29:02;11.60;99.90
2389;DHT22;1205;47.984;7.668;2023-02-23T18:31:30;11.60;99.90
2389;DHT22;1205;47.984;7.668;2023-02-23T18:33:56;11.60;99.90
2389;DHT22;1205;47.984;7.668;2023-02-23T18:36:33;11.60;99.90
2389;DHT22;1205;47.984;7.668;2023-02-23T18:39:04;11.50;99.90